Time;durP1;ratioP1;P1;durP2;ratioP2;P2;SDS_P1;SDS_P2;PMS_P1;PMS_P2;Temp;Humidity;BMP_temperature;BMP_pressure;BME280_temperature;BME280_humidity;BME280_pressure;Samples;Min_cycle;Max_cycle;Signal;HPM_P1;HPM_P2
2023/08/26 00:00:25;;;;;;;71.87;21.60;;;16.60;99.90;;;;;;5053647;28;20068;-72
2023/08/26 00:02:51;;;;;;;62.47;21.00;;;16.50;99.90;;;;;;5053696;28;20048;-72
2023/08/26 00:05:17;;;;;;;64.47;20.90;;;16.50;99.90;;;;;;5053431;28;20056;-72
2023/08/26 00:07:42;;;;;;;62.00;21.13;;;16.40;99.90;;;;;;5035758;28;20049;-72
2023/08/26 00:10:08;;;;;;;62.33;21.60;;;16.40;99.90;;;;;;5035480;28;20084;-73
2023/08/26 00:12:34;;;;;;;63.65;21.58;;;16.30;99.90;;;;;;5053326;28;20045;-72
2023/08/26 00:14:59;;;;;;;56.07;18.87;;;16.20;99.90;;;;;;5052626;28;20044;-73
2023/08/26 00:17:25;;;;;;;64.43;19.90;;;16.20;99.90;;;;;;5053265;28;20049;-73
2023/08/26 00:19:51;;;;;;;57.10;19.77;;;16.10;99.90;;;;;;5035772;28;20132;-73
2023/08/26 00:22:20;;;;;;;57.67;21.58;;;16.10;99.90;;;;;;5036274;28;20040;-74
2023/08/26 00:24:47;;;;;;;60.85;20.58;;;16.10;99.90;;;;;;5054131;28;20052;-72
2023/08/26 00:27:13;;;;;;;59.70;20.17;;;16.10;99.90;;;;;;5070188;28;20045;-72
2023/08/26 00:29:40;;;;;;;55.97;18.67;;;16.10;99.90;;;;;;5055189;28;20037;-72
2023/08/26 00:32:06;;;;;;;59.83;19.15;;;16.10;99.90;;;;;;5057325;28;20284;-72
2023/08/26 00:34:32;;;;;;;56.77;19.50;;;16.10;99.90;;;;;;5056462;28;20133;-72
2023/08/26 00:36:57;;;;;;;60.43;19.30;;;16.20;99.90;;;;;;5057672;28;20055;-73
2023/08/26 00:39:23;;;;;;;56.27;19.10;;;16.20;99.90;;;;;;5057580;28;20127;-74
2023/08/26 00:41:49;;;;;;;61.07;20.47;;;16.20;99.90;;;;;;5039318;28;20045;-72
2023/08/26 00:44:14;;;;;;;58.60;19.60;;;16.20;99.90;;;;;;5057458;28;20385;-73
2023/08/26 00:46:40;;;;;;;56.30;19.90;;;16.20;99.90;;;;;;5056969;28;20045;-72
2023/08/26 00:49:07;;;;;;;49.23;18.50;;;16.20;99.90;;;;;;5057076;28;20044;-72
2023/08/26 00:51:33;;;;;;;54.33;19.45;;;16.30;99.90;;;;;;5056836;28;20041;-74
2023/08/26 00:53:59;;;;;;;47.87;18.20;;;16.20;99.90;;;;;;5056823;28;20094;-73
2023/08/26 00:56:25;;;;;;;54.10;18.75;;;16.30;99.90;;;;;;5057595;28;20048;-73
2023/08/26 00:58:51;;;;;;;54.63;19.30;;;16.30;99.90;;;;;;5057413;28;20485;-73
2023/08/26 01:01:18;;;;;;;61.67;20.42;;;16.30;99.90;;;;;;5056330;28;20438;-71
2023/08/26 01:03:44;;;;;;;46.05;17.13;;;16.30;99.90;;;;;;5055582;28;20140;-71
2023/08/26 01:06:10;;;;;;;45.57;17.47;;;16.30;99.90;;;;;;5056899;28;20441;-73
2023/08/26 01:08:37;;;;;;;50.67;18.35;;;16.20;99.90;;;;;;5055300;28;20127;-72
2023/08/26 01:11:17;;;;;;;47.97;17.10;;;16.20;99.90;;;;;;5056976;28;20127;-72
2023/08/26 01:14:07;;;;;;;45.22;16.45;;;16.30;99.90;;;;;;5056523;28;20049;-72
2023/08/26 01:16:35;;;;;;;48.28;14.95;;;16.30;99.90;;;;;;5056621;28;20049;-71
2023/08/26 01:19:02;;;;;;;46.42;15.55;;;16.30;99.90;;;;;;5056277;28;20045;-71
2023/08/26 01:21:36;;;;;;;36.63;14.25;;;16.30;99.90;;;;;;5088162;28;20056;-71
2023/08/26 01:24:02;;;;;;;49.45;15.65;;;16.30;99.90;;;;;;5057275;28;20045;-72
2023/08/26 01:26:28;;;;;;;43.65;14.65;;;16.30;99.90;;;;;;5055754;28;20045;-71
2023/08/26 01:28:54;;;;;;;45.55;17.00;;;16.30;99.90;;;;;;5056084;28;20049;-71
2023/08/26 01:31:21;;;;;;;46.90;16.27;;;16.30;99.90;;;;;;5056005;28;20041;-72
2023/08/26 01:34:00;;;;;;;46.95;17.20;;;16.30;99.90;;;;;;5056048;28;20124;-72
2023/08/26 01:36:31;;;;;;;51.38;16.10;;;16.30;99.90;;;;;;5055259;28;20057;-72
2023/08/26 01:38:57;;;;;;;49.22;16.10;;;16.20;99.90;;;;;;5055332;28;20048;-72
2023/08/26 01:41:24;;;;;;;46.88;16.58;;;16.10;99.90;;;;;;5055493;28;20124;-72
2023/08/26 01:43:50;;;;;;;49.38;15.82;;;16.20;99.90;;;;;;5088487;28;20397;-72
2023/08/26 01:46:16;;;;;;;47.95;16.45;;;16.10;99.90;;;;;;5056310;28;20179;-71
2023/08/26 01:48:43;;;;;;;49.17;17.27;;;16.00;99.90;;;;;;5055694;28;20037;-71
2023/08/26 01:51:10;;;;;;;48.80;16.13;;;16.00;99.90;;;;;;5054704;28;20284;-72
2023/08/26 01:53:35;;;;;;;45.50;16.35;;;16.00;99.90;;;;;;5055075;28;20484;-72
2023/08/26 01:56:01;;;;;;;43.77;15.07;;;16.00;99.90;;;;;;5054619;28;20048;-72
2023/08/26 01:58:27;;;;;;;41.85;14.95;;;16.00;99.90;;;;;;5054850;28;20056;-72
2023/08/26 02:00:52;;;;;;;44.63;15.20;;;16.10;99.90;;;;;;5055509;28;20131;-73
2023/08/26 02:03:18;;;;;;;41.87;15.47;;;16.00;99.90;;;;;;5055527;28;20053;-72
2023/08/26 02:05:44;;;;;;;37.70;14.83;;;16.10;99.90;;;;;;5055413;28;20080;-73
2023/08/26 02:08:10;;;;;;;43.90;14.60;;;16.10;99.90;;;;;;5055445;28;20048;-72
2023/08/26 02:10:35;;;;;;;34.92;13.40;;;16.10;99.90;;;;;;5055189;28;20045;-72
2023/08/26 02:13:01;;;;;;;33.20;13.27;;;16.10;99.90;;;;;;5055378;28;20124;-71
2023/08/26 02:15:27;;;;;;;40.17;14.03;;;16.10;99.90;;;;;;5055178;28;20045;-72
2023/08/26 02:17:52;;;;;;;41.67;13.35;;;16.10;99.90;;;;;;5054272;28;20095;-72
2023/08/26 02:20:18;;;;;;;41.13;15.57;;;16.10;99.90;;;;;;5055093;28;20064;-72
2023/08/26 02:22:44;;;;;;;44.23;14.37;;;16.00;99.90;;;;;;5053877;28;20429;-71
2023/08/26 02:25:10;;;;;;;34.23;13.80;;;16.10;99.90;;;;;;5055048;28;20045;-71
2023/08/26 02:27:35;;;;;;;38.23;13.50;;;16.10;99.90;;;;;;5054013;28;20044;-72
2023/08/26 02:30:02;;;;;;;35.07;13.60;;;16.00;99.90;;;;;;5054954;28;20124;-71
2023/08/26 02:32:28;;;;;;;37.22;14.15;;;16.00;99.90;;;;;;5037221;28;20041;-72
2023/08/26 02:34:54;;;;;;;34.55;13.30;;;15.90;99.90;;;;;;5053571;28;20052;-71
2023/08/26 02:37:21;;;;;;;32.58;13.77;;;15.90;99.90;;;;;;5054938;28;20053;-71
2023/08/26 02:39:47;;;;;;;40.35;14.07;;;15.90;99.90;;;;;;5054637;28;20051;-71
2023/08/26 02:42:12;;;;;;;37.33;14.38;;;15.80;99.90;;;;;;5053565;28;20045;-71
2023/08/26 02:44:38;;;;;;;40.45;14.27;;;15.80;99.90;;;;;;5054897;28;20048;-72
2023/08/26 02:47:04;;;;;;;33.00;12.60;;;15.80;99.90;;;;;;5054660;28;20049;-71
2023/08/26 02:49:30;;;;;;;34.33;14.50;;;15.70;99.90;;;;;;5054456;28;20456;-72
2023/08/26 02:51:55;;;;;;;36.03;13.53;;;15.60;99.90;;;;;;5087408;28;20041;-71
2023/08/26 02:54:21;;;;;;;40.30;14.63;;;15.50;99.90;;;;;;5053355;28;20052;-71
2023/08/26 02:56:47;;;;;;;37.47;14.20;;;15.50;99.90;;;;;;5053042;28;20136;-71
2023/08/26 02:59:12;;;;;;;38.65;13.50;;;15.40;99.90;;;;;;5054231;28;20091;-71
2023/08/26 03:01:39;;;;;;;38.87;14.00;;;15.30;99.90;;;;;;5053965;28;20045;-71
2023/08/26 03:04:05;;;;;;;38.83;13.48;;;15.30;99.90;;;;;;5053340;28;20451;-71
2023/08/26 03:06:30;;;;;;;41.93;14.73;;;15.20;99.90;;;;;;5054237;28;20045;-71
2023/08/26 03:08:56;;;;;;;36.43;13.10;;;15.20;99.90;;;;;;5054465;28;20393;-70
2023/08/26 03:11:22;;;;;;;37.10;13.27;;;15.20;99.90;;;;;;5053013;28;20045;-70
2023/08/26 03:13:49;;;;;;;31.30;13.32;;;15.20;99.90;;;;;;5053238;28;20045;-70
2023/08/26 03:16:15;;;;;;;35.60;13.25;;;15.10;99.90;;;;;;5053786;28;20100;-71
2023/08/26 03:18:41;;;;;;;41.55;13.85;;;15.10;99.90;;;;;;5053969;28;20044;-71
2023/08/26 03:21:08;;;;;;;44.60;14.03;;;15.10;99.90;;;;;;5052638;28;20080;-71
2023/08/26 03:23:37;;;;;;;43.58;13.63;;;15.10;99.90;;;;;;5053813;28;20049;-70
2023/08/26 03:26:03;;;;;;;34.97;13.60;;;15.10;99.90;;;;;;5053945;28;20084;-70
2023/08/26 03:28:30;;;;;;;39.30;12.77;;;15.10;99.90;;;;;;5087027;28;20045;-72
2023/08/26 03:31:04;;;;;;;34.13;12.57;;;15.10;99.90;;;;;;5054124;28;20053;-70
2023/08/26 03:33:30;;;;;;;41.30;13.43;;;15.10;99.90;;;;;;5053798;28;20432;-70
2023/08/26 03:35:56;;;;;;;37.53;12.60;;;15.10;99.90;;;;;;5053770;28;20052;-71
2023/08/26 03:38:22;;;;;;;37.45;12.82;;;15.10;99.90;;;;;;5052598;28;20477;-71
2023/08/26 03:40:47;;;;;;;38.25;13.90;;;15.10;99.90;;;;;;5086524;28;20051;-70
2023/08/26 03:43:13;;;;;;;37.88;14.60;;;15.20;99.90;;;;;;5053662;28;20127;-70
2023/08/26 03:45:39;;;;;;;34.90;14.10;;;15.20;99.90;;;;;;5036306;28;20087;-71
2023/08/26 03:48:05;;;;;;;33.90;13.70;;;15.20;99.90;;;;;;5085859;28;20440;-71
2023/08/26 03:50:31;;;;;;;38.20;14.50;;;15.30;99.90;;;;;;5053540;28;20080;-71
2023/08/26 03:52:56;;;;;;;35.65;13.98;;;15.30;99.90;;;;;;5053425;28;20408;-71
2023/08/26 03:55:22;;;;;;;36.97;13.55;;;15.30;99.90;;;;;;5052304;28;20041;-71
2023/08/26 03:57:48;;;;;;;39.80;14.87;;;15.30;99.90;;;;;;5053107;28;20048;-70
2023/08/26 04:00:14;;;;;;;40.92;14.77;;;15.30;99.90;;;;;;5035903;28;20049;-70
2023/08/26 04:02:40;;;;;;;42.50;14.77;;;15.30;99.90;;;;;;5053325;28;20075;-71
2023/08/26 04:05:06;;;;;;;32.55;12.77;;;15.40;99.90;;;;;;5052715;28;20132;-71
2023/08/26 04:07:32;;;;;;;40.25;14.65;;;15.40;99.90;;;;;;5052363;28;20451;-70
2023/08/26 04:09:58;;;;;;;39.10;14.63;;;15.30;99.90;;;;;;5053133;28;20362;-70
2023/08/26 04:12:23;;;;;;;36.08;14.18;;;15.40;99.90;;;;;;5053319;28;20045;-71
2023/08/26 04:14:49;;;;;;;38.15;14.30;;;15.30;99.90;;;;;;5053467;28;20175;-71
2023/08/26 04:17:15;;;;;;;40.30;14.93;;;15.30;99.90;;;;;;5052067;28;20078;-71
2023/08/26 04:19:40;;;;;;;45.40;15.03;;;15.30;99.90;;;;;;5051994;28;20432;-71
2023/08/26 04:22:07;;;;;;;36.97;15.07;;;15.20;99.90;;;;;;5053096;28;20096;-71
2023/08/26 04:24:33;;;;;;;45.83;15.65;;;15.20;99.90;;;;;;5053161;28;20501;-70
2023/08/26 04:26:59;;;;;;;42.95;16.52;;;15.20;99.90;;;;;;5053070;28;20136;-71
2023/08/26 04:29:24;;;;;;;38.00;15.43;;;15.20;99.90;;;;;;5053116;28;20136;-71
2023/08/26 04:31:50;;;;;;;48.15;16.35;;;15.20;99.90;;;;;;5053094;28;20051;-71
2023/08/26 04:34:16;;;;;;;47.10;15.93;;;15.20;99.90;;;;;;5052856;28;20040;-70
2023/08/26 04:36:41;;;;;;;47.53;16.33;;;15.20;99.90;;;;;;5085535;28;20051;-70
2023/08/26 04:39:11;;;;;;;44.78;16.65;;;15.30;99.90;;;;;;5035490;28;20378;-71
2023/08/26 04:41:40;;;;;;;44.88;15.80;;;15.30;99.90;;;;;;5051679;28;20092;-71
2023/08/26 04:44:08;;;;;;;44.20;16.25;;;15.30;99.90;;;;;;5052826;28;20049;-71
2023/08/26 04:46:34;;;;;;;47.97;16.50;;;15.30;99.90;;;;;;5036012;28;20053;-70
2023/08/26 04:49:00;;;;;;;44.92;15.98;;;15.40;99.90;;;;;;5052016;28;20362;-70
2023/08/26 04:51:25;;;;;;;45.35;16.00;;;15.40;99.90;;;;;;5051647;28;20044;-70
2023/08/26 04:53:51;;;;;;;49.60;17.40;;;15.50;99.90;;;;;;5052851;28;20048;-70
2023/08/26 04:56:17;;;;;;;41.35;15.55;;;15.50;99.90;;;;;;5052183;28;20080;-70
2023/08/26 04:58:42;;;;;;;44.33;17.35;;;15.50;99.90;;;;;;5051849;28;20135;-77
2023/08/26 05:01:09;;;;;;;41.08;16.42;;;15.50;99.90;;;;;;5085669;28;20045;-71
2023/08/26 05:03:35;;;;;;;38.37;15.13;;;15.50;99.90;;;;;;5052438;28;20148;-71
2023/08/26 05:06:01;;;;;;;43.45;15.73;;;15.50;99.90;;;;;;5068441;28;20295;-71
2023/08/26 05:08:26;;;;;;;47.03;15.73;;;15.50;99.90;;;;;;5085369;28;20064;-71
2023/08/26 05:10:52;;;;;;;40.97;15.40;;;15.50;99.90;;;;;;5052684;28;20433;-71
2023/08/26 05:13:18;;;;;;;38.97;15.17;;;15.50;99.90;;;;;;5052014;28;20127;-70
2023/08/26 05:15:43;;;;;;;44.63;15.43;;;15.60;99.90;;;;;;5051805;28;20048;-71
2023/08/26 05:18:09;;;;;;;40.80;14.60;;;15.60;99.90;;;;;;5056350;28;20041;-71
2023/08/26 05:20:35;;;;;;;38.58;14.18;;;15.60;99.90;;;;;;5056267;28;20064;-70
2023/08/26 05:23:01;;;;;;;34.95;14.82;;;15.60;99.90;;;;;;5054960;28;20055;-70
2023/08/26 05:25:26;;;;;;;32.75;13.35;;;15.70;99.90;;;;;;5056196;28;20084;-70
2023/08/26 05:27:52;;;;;;;37.08;13.30;;;15.60;99.90;;;;;;5054885;28;20072;-71
2023/08/26 05:30:18;;;;;;;41.05;13.93;;;15.60;99.90;;;;;;5055978;28;20060;-70
2023/08/26 05:32:43;;;;;;;43.58;15.20;;;15.70;99.90;;;;;;5038392;28;20045;-70
2023/08/26 05:35:09;;;;;;;39.45;14.80;;;15.70;99.90;;;;;;5054649;28;20088;-70
2023/08/26 05:37:35;;;;;;;51.72;15.40;;;15.60;99.90;;;;;;5055968;28;20048;-70
2023/08/26 05:40:02;;;;;;;54.28;16.10;;;15.60;99.90;;;;;;5056561;28;20044;-72
2023/08/26 05:42:28;;;;;;;49.10;15.32;;;15.60;99.90;;;;;;5088763;28;20465;-70
2023/08/26 05:44:53;;;;;;;53.60;17.38;;;15.70;99.90;;;;;;5056290;28;20195;-70
2023/08/26 05:47:19;;;;;;;53.38;17.35;;;15.60;99.90;;;;;;5054736;28;20074;-70
2023/08/26 05:49:45;;;;;;;57.75;16.83;;;15.70;99.90;;;;;;5088122;28;20052;-71
2023/08/26 05:52:11;;;;;;;49.30;18.80;;;15.70;99.90;;;;;;5056093;28;20049;-70
2023/08/26 05:54:36;;;;;;;49.75;18.83;;;15.70;99.90;;;;;;5055266;28;20110;-71
2023/08/26 05:57:02;;;;;;;56.37;18.43;;;15.70;99.90;;;;;;5053954;28;20048;-71
2023/08/26 05:59:28;;;;;;;51.78;19.02;;;15.70;99.90;;;;;;5054577;28;20114;-72
2023/08/26 06:01:54;;;;;;;55.22;19.80;;;15.80;99.90;;;;;;5056108;28;20052;-70
2023/08/26 06:04:19;;;;;;;60.50;20.45;;;15.80;99.90;;;;;;5055843;28;20044;-70
2023/08/26 06:06:45;;;;;;;50.00;20.35;;;15.90;99.90;;;;;;5055337;28;20444;-70
2023/08/26 06:09:11;;;;;;;55.35;19.08;;;15.90;99.90;;;;;;5054006;28;20041;-70
2023/08/26 06:11:38;;;;;;;56.28;20.88;;;15.90;99.90;;;;;;5055470;28;20049;-69
2023/08/26 06:14:04;;;;;;;56.60;18.67;;;15.90;99.90;;;;;;5055161;28;20049;-72
2023/08/26 06:16:30;;;;;;;48.45;18.00;;;15.90;99.90;;;;;;5037453;28;20045;-70
2023/08/26 06:18:56;;;;;;;55.03;18.00;;;15.90;99.90;;;;;;5053842;28;20127;-70
2023/08/26 06:21:21;;;;;;;54.30;17.58;;;15.90;99.90;;;;;;5053671;28;20200;-69
2023/08/26 06:23:48;;;;;;;61.63;18.58;;;15.90;99.90;;;;;;5055131;28;20045;-69
2023/08/26 06:26:14;;;;;;;53.58;18.35;;;15.90;99.90;;;;;;5054205;28;20065;-69
2023/08/26 06:28:39;;;;;;;50.13;16.92;;;15.90;99.90;;;;;;5036527;28;20051;-70
2023/08/26 06:31:05;;;;;;;49.50;16.47;;;15.90;99.90;;;;;;5055097;28;20544;-71
2023/08/26 06:33:31;;;;;;;49.50;14.85;;;16.00;99.90;;;;;;5053850;28;20493;-71
2023/08/26 06:35:56;;;;;;;48.88;15.32;;;16.00;99.90;;;;;;5054638;28;20048;-76
2023/08/26 06:38:22;;;;;;;49.22;16.65;;;15.90;99.90;;;;;;5054770;28;20084;-71
2023/08/26 06:40:57;;;;;;;46.53;15.80;;;16.00;99.90;;;;;;5055028;28;20095;-72
2023/08/26 06:43:23;;;;;;;53.80;18.42;;;16.00;99.90;;;;;;5054614;28;20041;-71
2023/08/26 06:45:49;;;;;;;43.75;16.35;;;16.00;99.90;;;;;;5055144;28;20087;-71
2023/08/26 06:48:16;;;;;;;49.22;16.50;;;16.00;99.90;;;;;;5054526;28;20067;-71
2023/08/26 06:50:42;;;;;;;45.55;16.02;;;16.00;99.90;;;;;;5054453;28;20127;-71
2023/08/26 06:53:07;;;;;;;47.67;17.50;;;16.00;99.90;;;;;;5086849;28;20132;-71
2023/08/26 06:55:33;;;;;;;46.42;17.20;;;16.00;99.90;;;;;;5054737;28;20052;-71
2023/08/26 06:57:59;;;;;;;48.80;19.03;;;16.10;99.90;;;;;;5036823;28;20496;-75
2023/08/26 07:00:24;;;;;;;56.73;20.03;;;16.20;99.90;;;;;;5053388;28;20062;-69
2023/08/26 07:02:50;;;;;;;56.38;20.42;;;16.30;99.90;;;;;;5053820;28;20060;-70
2023/08/26 07:05:16;;;;;;;56.75;20.85;;;16.30;99.90;;;;;;5054275;28;20045;-72
2023/08/26 07:07:41;;;;;;;59.22;22.00;;;16.40;99.90;;;;;;5036799;28;20473;-71
2023/08/26 07:10:07;;;;;;;60.27;22.47;;;16.40;99.90;;;;;;5054069;28;20081;-73
2023/08/26 07:12:33;;;;;;;60.20;22.42;;;16.40;99.90;;;;;;5054102;28;20041;-72
2023/08/26 07:14:59;;;;;;;55.60;21.50;;;16.30;99.90;;;;;;5053022;28;20048;-71
2023/08/26 07:17:25;;;;;;;56.22;19.92;;;16.30;99.90;;;;;;5053268;28;20045;-74
2023/08/26 07:19:50;;;;;;;47.97;21.45;;;16.30;99.90;;;;;;5053977;28;20033;-73
2023/08/26 07:22:16;;;;;;;58.17;22.13;;;16.30;99.90;;;;;;5053587;28;20060;-72
2023/08/26 07:24:42;;;;;;;57.33;21.15;;;16.30;99.90;;;;;;5053095;28;20428;-72
2023/08/26 07:27:07;;;;;;;56.40;21.80;;;16.40;99.90;;;;;;5069594;28;20420;-72
2023/08/26 07:29:34;;;;;;;54.20;19.97;;;16.40;99.90;;;;;;5019718;28;20071;-73
2023/08/26 07:31:59;;;;;;;54.20;20.73;;;16.50;99.90;;;;;;5053799;28;20040;-73
2023/08/26 07:34:25;;;;;;;54.20;20.53;;;16.50;99.90;;;;;;5053767;28;20123;-73
2023/08/26 07:36:51;;;;;;;52.30;21.53;;;16.60;99.90;;;;;;5052496;28;20103;-73
2023/08/26 07:39:18;;;;;;;54.50;21.03;;;16.60;99.90;;;;;;5054162;28;20041;-73
2023/08/26 07:41:44;;;;;;;54.42;21.55;;;16.70;99.90;;;;;;5052861;28;20405;-74
2023/08/26 07:44:10;;;;;;;55.70;22.20;;;16.80;99.90;;;;;;5053578;28;20485;-73
2023/08/26 07:46:35;;;;;;;50.28;21.90;;;16.90;99.90;;;;;;5053602;28;20086;-72
2023/08/26 07:49:01;;;;;;;52.60;21.80;;;16.90;99.90;;;;;;5086051;28;20094;-73
2023/08/26 07:51:27;;;;;;;52.47;21.15;;;16.90;99.90;;;;;;5053470;28;20056;-73
2023/08/26 07:53:52;;;;;;;57.17;21.23;;;16.90;99.90;;;;;;5052812;28;20044;-73
2023/08/26 07:56:18;;;;;;;51.80;20.77;;;17.00;99.90;;;;;;5019605;28;20182;-72
2023/08/26 07:58:44;;;;;;;49.57;21.77;;;17.10;99.90;;;;;;5054227;28;20044;-74
2023/08/26 08:01:10;;;;;;;48.90;21.70;;;17.40;99.90;;;;;;5053248;28;20052;-73
2023/08/26 08:03:36;;;;;;;53.38;21.90;;;17.50;99.90;;;;;;5053906;28;20411;-74
2023/08/26 08:06:01;;;;;;;48.63;23.02;;;17.60;99.90;;;;;;5069035;28;20049;-73
2023/08/26 08:08:27;;;;;;;48.50;22.53;;;17.60;99.90;;;;;;5054007;28;20131;-73
2023/08/26 08:10:53;;;;;;;54.83;23.70;;;17.60;99.90;;;;;;5036109;28;20493;-74
2023/08/26 08:13:18;;;;;;;62.00;22.67;;;17.50;99.90;;;;;;5051836;28;20492;-75
2023/08/26 08:15:44;;;;;;;50.40;22.95;;;17.50;99.90;;;;;;5053614;28;20059;-74
2023/08/26 08:18:10;;;;;;;55.83;22.60;;;17.60;99.90;;;;;;5052990;28;20185;-75
2023/08/26 08:20:36;;;;;;;54.73;24.17;;;17.60;99.90;;;;;;5051746;28;20077;-74
2023/08/26 08:23:03;;;;;;;56.93;22.43;;;17.60;99.90;;;;;;5052322;28;20520;-74
2023/08/26 08:25:29;;;;;;;59.25;23.23;;;17.70;99.90;;;;;;5035375;28;20120;-74
2023/08/26 08:27:55;;;;;;;59.57;23.87;;;17.80;99.90;;;;;;5035476;28;20051;-76
2023/08/26 08:30:21;;;;;;;45.83;22.13;;;18.00;99.90;;;;;;5051330;28;20094;-75
2023/08/26 08:32:47;;;;;;;53.23;22.67;;;18.00;99.90;;;;;;5052941;28;20045;-76
2023/08/26 08:35:12;;;;;;;42.88;21.08;;;18.00;99.90;;;;;;5035313;28;20091;-76
2023/08/26 08:37:38;;;;;;;49.13;21.63;;;18.10;99.90;;;;;;5018946;28;20053;-78
2023/08/26 08:40:05;;;;;;;43.83;20.90;;;18.10;99.90;;;;;;5053227;28;20044;-76
2023/08/26 08:42:34;;;;;;;46.38;19.38;;;18.20;99.90;;;;;;5052999;28;20060;-79
2023/08/26 08:45:05;;;;;;;43.13;19.45;;;18.30;99.90;;;;;;5052149;28;20369;-77
2023/08/26 08:47:31;;;;;;;49.83;20.95;;;18.40;99.90;;;;;;5053517;28;20052;-77
2023/08/26 08:49:57;;;;;;;47.65;21.60;;;18.50;99.90;;;;;;5052117;28;20110;-77
2023/08/26 08:52:25;;;;;;;50.17;20.48;;;18.40;99.90;;;;;;5056765;28;20045;-78
2023/08/26 08:54:50;;;;;;;45.22;19.75;;;18.50;99.90;;;;;;5056986;28;20386;-78
2023/08/26 08:57:20;;;;;;;51.03;20.87;;;18.70;99.90;;;;;;5056369;28;20136;-80
2023/08/26 08:59:46;;;;;;;39.40;18.45;;;18.80;99.90;;;;;;5056629;28;20128;-78
2023/08/26 09:02:13;;;;;;;40.13;17.93;;;18.80;99.90;;;;;;5056034;28;20128;-79
2023/08/26 09:04:39;;;;;;;40.38;16.30;;;18.90;99.90;;;;;;5055315;28;20060;-72
2023/08/26 09:07:06;;;;;;;34.73;15.57;;;18.90;99.90;;;;;;5056540;28;20045;-78
2023/08/26 09:09:31;;;;;;;32.35;15.60;;;19.00;99.90;;;;;;5056619;28;20036;-78
2023/08/26 09:11:58;;;;;;;41.20;14.27;;;19.10;99.90;;;;;;5055995;28;20094;-79
2023/08/26 09:14:25;;;;;;;43.08;14.85;;;19.10;99.90;;;;;;5057550;28;20053;-80
2023/08/26 09:16:51;;;;;;;39.80;13.90;;;19.10;99.90;;;;;;5056050;28;20072;-78
2023/08/26 09:19:20;;;;;;;41.47;14.48;;;19.10;99.90;;;;;;5057553;28;20041;-80
2023/08/26 09:21:47;;;;;;;41.28;13.70;;;19.00;99.90;;;;;;5056436;28;20068;-79
2023/08/26 09:24:14;;;;;;;35.22;11.82;;;19.00;99.90;;;;;;5056559;28;20083;-79
2023/08/26 09:26:44;;;;;;;33.63;11.55;;;19.00;99.90;;;;;;5057021;28;20045;-78
2023/08/26 09:29:20;;;;;;;31.98;11.18;;;19.20;99.90;;;;;;5057291;28;20070;-78
2023/08/26 09:31:50;;;;;;;31.20;9.98;;;19.50;99.90;;;;;;5057238;28;20400;-78
2023/08/26 09:34:26;;;;;;;28.15;9.13;;;19.70;99.90;;;;;;5058597;28;20099;-78
2023/08/26 09:36:52;;;;;;;29.55;8.45;;;20.00;99.90;;;;;;5041053;28;20048;-79
2023/08/26 09:39:18;;;;;;;29.73;8.15;;;20.20;99.90;;;;;;5058859;28;20041;-77
2023/08/26 09:41:45;;;;;;;21.53;6.80;;;20.30;99.90;;;;;;5056731;28;20052;-81
2023/08/26 09:44:12;;;;;;;20.65;6.75;;;20.30;99.90;;;;;;5056820;28;20052;-80
2023/08/26 09:46:42;;;;;;;;;;;20.30;99.90;;;;;;5057180;28;20048;-79
2023/08/26 09:49:12;;;;;;;18.92;4.72;;;20.20;99.90;;;;;;5055130;28;19921;-79
2023/08/26 09:51:37;;;;;;;18.67;4.28;;;20.20;99.90;;;;;;5056684;28;20044;-80
2023/08/26 09:54:05;;;;;;;18.27;4.80;;;20.10;99.90;;;;;;5056348;28;20453;-78
2023/08/26 09:56:31;;;;;;;11.30;4.50;;;20.00;99.90;;;;;;5055289;28;20111;-80
2023/08/26 09:58:57;;;;;;;20.80;5.00;;;20.10;99.90;;;;;;5057071;28;20072;-81
2023/08/26 10:01:24;;;;;;;16.92;4.60;;;20.20;99.90;;;;;;5054116;28;20045;-77
2023/08/26 10:04:05;;;;;;;23.00;4.68;;;20.30;99.90;;;;;;5055002;28;20052;-77
2023/08/26 10:06:33;;;;;;;22.00;5.45;;;20.30;99.90;;;;;;5054130;28;20053;-80
2023/08/26 10:09:08;;;;;;;18.00;5.20;;;20.10;99.90;;;;;;5055263;28;20167;-80
2023/08/26 10:11:40;;;;;;;23.25;5.18;;;20.10;99.90;;;;;;5054369;28;20071;-79
2023/08/26 10:14:11;;;;;;;15.68;4.10;;;20.30;99.90;;;;;;5054039;28;20040;-76
2023/08/26 10:16:38;;;;;;;15.43;3.65;;;20.50;99.90;;;;;;5037630;28;20052;-79
2023/08/26 10:19:04;;;;;;;12.80;3.42;;;20.70;99.90;;;;;;5055112;28;20052;-74
2023/08/26 10:21:31;;;;;;;18.15;3.92;;;20.70;99.90;;;;;;5053958;28;20053;-77
2023/08/26 10:23:57;;;;;;;15.75;3.88;;;20.70;99.90;;;;;;5055257;28;20056;-75
2023/08/26 10:26:25;;;;;;;11.93;3.65;;;20.70;99.90;;;;;;5037580;28;20045;-73
2023/08/26 10:28:52;;;;;;;14.65;4.65;;;20.60;99.90;;;;;;5054820;28;20044;-75
2023/08/26 10:31:18;;;;;;;18.02;5.22;;;20.60;99.90;;;;;;5037438;28;20536;-75
2023/08/26 10:34:08;;;;;;;22.37;5.57;;;20.70;99.90;;;;;;5055892;28;20171;-77
2023/08/26 10:36:36;;;;;;;22.10;6.70;;;20.70;99.90;;;;;;5055132;28;20051;-73
2023/08/26 10:39:02;;;;;;;21.50;5.22;;;20.70;99.90;;;;;;5038117;28;20106;-74
2023/08/26 10:41:29;;;;;;;18.05;4.78;;;20.70;99.90;;;;;;5054752;28;20124;-74
2023/08/26 10:44:01;;;;;;;17.35;5.25;;;20.70;99.90;;;;;;5037345;28;20040;-74
2023/08/26 10:46:34;;;;;;;17.15;5.55;;;20.70;99.90;;;;;;5054700;28;20045;-75
2023/08/26 10:49:00;;;;;;;11.90;4.35;;;20.80;99.90;;;;;;5086783;28;20049;-76
2023/08/26 10:51:27;;;;;;;14.88;4.25;;;21.10;99.90;;;;;;5053237;28;20043;-75
2023/08/26 10:54:03;;;;;;;16.23;4.20;;;21.30;99.90;;;;;;5053314;28;20041;-77
2023/08/26 10:56:33;;;;;;;15.93;3.70;;;21.50;99.90;;;;;;5054966;28;20049;-75
2023/08/26 10:59:03;;;;;;;17.38;3.85;;;21.70;99.90;;;;;;5055283;28;20048;-76
2023/08/26 11:01:34;;;;;;;11.73;3.50;;;21.70;99.90;;;;;;5053243;28;20041;-75
2023/08/26 11:04:00;;;;;;;12.95;2.85;;;22.00;99.90;;;;;;5054751;28;20044;-75
2023/08/26 11:06:26;;;;;;;11.10;2.87;;;22.10;99.90;;;;;;5053415;28;20041;-76
2023/08/26 11:08:56;;;;;;;8.03;2.77;;;22.10;99.90;;;;;;5053149;28;20084;-76
2023/08/26 11:11:23;;;;;;;10.80;2.95;;;22.10;99.90;;;;;;5054414;28;20041;-75
2023/08/26 11:13:49;;;;;;;8.57;2.78;;;22.10;99.90;;;;;;5036025;28;20139;-76
2023/08/26 11:16:15;;;;;;;7.43;3.10;;;22.10;99.90;;;;;;5052998;28;20127;-76
2023/08/26 11:18:42;;;;;;;9.98;2.35;;;22.20;99.90;;;;;;5036655;28;20127;-76
2023/08/26 11:21:08;;;;;;;12.27;3.35;;;22.00;99.90;;;;;;5053853;28;20084;-75
2023/08/26 11:23:34;;;;;;;11.18;4.10;;;21.90;99.90;;;;;;5053831;28;20040;-75
2023/08/26 11:26:00;;;;;;;9.98;3.45;;;22.00;99.90;;;;;;5053999;28;20045;-77
2023/08/26 11:28:27;;;;;;;11.50;2.35;;;22.00;99.90;;;;;;5054011;28;20049;-76
2023/08/26 11:30:54;;;;;;;7.78;3.15;;;22.30;99.90;;;;;;5036178;28;20044;-77
2023/08/26 11:33:21;;;;;;;;;;;22.30;99.90;;;;;;5055084;28;20393;-74
2023/08/26 11:35:48;;;;;;;10.70;2.78;;;22.30;99.90;;;;;;5054605;28;20285;-75
2023/08/26 11:38:16;;;;;;;8.27;2.67;;;22.40;99.90;;;;;;5052577;28;20087;-75
2023/08/26 11:40:42;;;;;;;7.57;2.72;;;22.50;99.90;;;;;;5054362;28;20404;-77
2023/08/26 11:43:10;;;;;;;13.50;2.88;;;22.60;99.90;;;;;;5052965;28;20087;-74
2023/08/26 11:45:40;;;;;;;9.73;2.85;;;22.50;99.90;;;;;;5054286;28;20381;-75
2023/08/26 11:48:10;;;;;;;8.98;2.50;;;22.50;99.90;;;;;;5052601;28;20059;-74
2023/08/26 11:50:37;;;;;;;12.40;2.42;;;22.40;99.90;;;;;;5052151;28;20041;-75
2023/08/26 11:53:03;;;;;;;8.18;2.40;;;22.20;99.90;;;;;;5053589;28;20045;-75
2023/08/26 11:55:30;;;;;;;;;;;22.20;99.90;;;;;;5052911;28;20045;-73
2023/08/26 11:57:57;;;;;;;7.10;1.90;;;22.10;99.90;;;;;;5052390;28;20304;-75
2023/08/26 12:00:23;;;;;;;9.68;2.20;;;22.10;99.90;;;;;;5052824;28;20434;-76
2023/08/26 12:02:55;;;;;;;9.87;2.23;;;22.10;99.90;;;;;;5053321;28;20127;-71
2023/08/26 12:05:21;;;;;;;12.02;2.65;;;22.00;99.90;;;;;;5053690;28;20041;-75
2023/08/26 12:07:51;;;;;;;9.37;2.70;;;22.00;99.90;;;;;;5051896;28;20068;-75
2023/08/26 12:10:18;;;;;;;10.07;2.20;;;21.90;99.90;;;;;;5053946;28;20040;-74
2023/08/26 12:12:47;;;;;;;;;;;21.80;99.90;;;;;;5053594;28;20090;-76
2023/08/26 12:15:17;;;;;;;12.05;2.70;;;21.70;99.90;;;;;;5035441;28;19923;-76
2023/08/26 12:17:54;;;;;;;6.78;2.33;;;21.60;99.90;;;;;;5053272;28;20041;-73
2023/08/26 12:20:21;;;;;;;8.27;2.90;;;21.80;99.90;;;;;;5053324;28;20505;-75
2023/08/26 12:22:50;;;;;;;;;;;22.00;99.90;;;;;;5054012;28;20095;-77
2023/08/26 12:25:32;;;;;;;11.18;3.20;;;22.20;99.90;;;;;;5053141;28;20315;-75
2023/08/26 12:28:24;;;;;;;8.70;3.45;;;22.50;99.90;;;;;;5057319;28;20041;-76